Delta Virtual Airport Information Service

Cape Town International Airport

ICAO: FACT Country: South Africa
Latitude: -33.9648 Longitude: 18.6017
Latest Arrival : KLM597 (EHAM-FACT) Latest Departure : DAC45 (FACT-LTFM)


WX CaptureLIVE
Data provided by noaa.gov | Fetched at 00:19:17

METAR : FACT 120350Z VRB02KT 9999 BKN035 11/10 Q1020 NOSIG

TAF : FACT 112200Z 1200/1306 18006KT CAVOK TX22/1212Z TN10/1206Z PROB40 TEMPO 1200/1207 1500 BCFG NSC PROB30 TEMPO 1221/1306 0800 FG VV002


Runway Data for FACT
Data provided by openaviationdata.com

Runway ID Mag Var Hdg Length Elevation Surface ILS Freq ILS Id ILS Slope
1 -23 10526 ft 151 ft Asphalt 110.3 CTI 3
16 -23 158° 5578 ft 151 ft Asphalt -- -- --
19 -23 188° 10526 ft 151 ft Asphalt 109.1 KSI 3
34 -23 338° 5578 ft 151 ft Asphalt -- -- --

Cape Town International Airport, South Africa
Use only for reference purposes



Not for navigational purposes.